sensor_id;sensor_type;location;lat;lon;timestamp;P1;durP1;ratioP1;P2;durP2;ratioP2
289;SDS011;13193;48.874;9.086;2022-10-01T00:00:45;22.13;;;9.33;;
289;SDS011;13193;48.874;9.086;2022-10-01T00:03:11;20.13;;;10.53;;
289;SDS011;13193;48.874;9.086;2022-10-01T00:05:37;18.93;;;10.80;;
289;SDS011;13193;48.874;9.086;2022-10-01T00:08:02;16.10;;;8.60;;
289;SDS011;13193;48.874;9.086;2022-10-01T00:10:28;17.83;;;9.33;;
289;SDS011;13193;48.874;9.086;2022-10-01T00:12:55;16.70;;;8.83;;
289;SDS011;13193;48.874;9.086;2022-10-01T00:15:23;18.23;;;9.60;;
289;SDS011;13193;48.874;9.086;2022-10-01T00:17:50;25.77;;;9.40;;
289;SDS011;13193;48.874;9.086;2022-10-01T00:20:16;18.63;;;9.10;;
289;SDS011;13193;48.874;9.086;2022-10-01T00:22:42;19.80;;;8.80;;
289;SDS011;13193;48.874;9.086;2022-10-01T00:25:08;19.87;;;9.50;;
289;SDS011;13193;48.874;9.086;2022-10-01T00:27:33;20.50;;;8.50;;
289;SDS011;13193;48.874;9.086;2022-10-01T00:30:00;17.63;;;8.73;;
289;SDS011;13193;48.874;9.086;2022-10-01T00:32:27;21.43;;;10.53;;
289;SDS011;13193;48.874;9.086;2022-10-01T00:34:56;13.70;;;7.73;;
289;SDS011;13193;48.874;9.086;2022-10-01T00:37:23;16.73;;;9.10;;
289;SDS011;13193;48.874;9.086;2022-10-01T00:39:48;17.33;;;8.70;;
289;SDS011;13193;48.874;9.086;2022-10-01T00:42:21;21.37;;;8.60;;
289;SDS011;13193;48.874;9.086;2022-10-01T00:44:48;16.30;;;7.70;;
289;SDS011;13193;48.874;9.086;2022-10-01T00:47:18;14.20;;;8.27;;
289;SDS011;13193;48.874;9.086;2022-10-01T00:50:10;16.90;;;8.70;;
289;SDS011;13193;48.874;9.086;2022-10-01T00:52:42;17.43;;;8.07;;
289;SDS011;13193;48.874;9.086;2022-10-01T00:55:12;22.07;;;8.40;;
289;SDS011;13193;48.874;9.086;2022-10-01T00:58:00;17.03;;;8.50;;
289;SDS011;13193;48.874;9.086;2022-10-01T01:00:27;17.30;;;9.63;;
289;SDS011;13193;48.874;9.086;2022-10-01T01:02:53;22.30;;;7.80;;
289;SDS011;13193;48.874;9.086;2022-10-01T01:05:20;15.30;;;8.80;;
289;SDS011;13193;48.874;9.086;2022-10-01T01:07:47;16.13;;;8.60;;
289;SDS011;13193;48.874;9.086;2022-10-01T01:10:20;22.97;;;10.47;;
289;SDS011;13193;48.874;9.086;2022-10-01T01:18:21;14.63;;;7.93;;
289;SDS011;13193;48.874;9.086;2022-10-01T01:21:07;13.10;;;7.70;;
289;SDS011;13193;48.874;9.086;2022-10-01T01:32:11;15.33;;;8.50;;
289;SDS011;13193;48.874;9.086;2022-10-01T01:34:44;15.03;;;7.70;;
289;SDS011;13193;48.874;9.086;2022-10-01T01:37:14;15.00;;;7.07;;
289;SDS011;13193;48.874;9.086;2022-10-01T01:39:42;16.83;;;8.40;;
289;SDS011;13193;48.874;9.086;2022-10-01T01:42:19;13.77;;;6.97;;
289;SDS011;13193;48.874;9.086;2022-10-01T01:44:49;15.97;;;8.40;;
289;SDS011;13193;48.874;9.086;2022-10-01T01:47:19;16.13;;;7.40;;
289;SDS011;13193;48.874;9.086;2022-10-01T01:49:49;15.80;;;8.23;;
289;SDS011;13193;48.874;9.086;2022-10-01T01:52:16;13.90;;;7.43;;
289;SDS011;13193;48.874;9.086;2022-10-01T01:54:42;13.87;;;6.30;;
289;SDS011;13193;48.874;9.086;2022-10-01T01:57:10;12.50;;;6.47;;
289;SDS011;13193;48.874;9.086;2022-10-01T01:59:37;16.20;;;7.60;;
289;SDS011;13193;48.874;9.086;2022-10-01T02:02:04;13.97;;;7.77;;
289;SDS011;13193;48.874;9.086;2022-10-01T02:04:35;15.50;;;7.70;;
289;SDS011;13193;48.874;9.086;2022-10-01T02:18:09;15.63;;;7.50;;
289;SDS011;13193;48.874;9.086;2022-10-01T02:20:38;14.70;;;7.43;;
289;SDS011;13193;48.874;9.086;2022-10-01T02:23:13;10.37;;;5.70;;
289;SDS011;13193;48.874;9.086;2022-10-01T02:25:51;12.90;;;6.50;;
289;SDS011;13193;48.874;9.086;2022-10-01T02:28:23;23.40;;;6.33;;
289;SDS011;13193;48.874;9.086;2022-10-01T02:30:50;15.73;;;7.03;;
289;SDS011;13193;48.874;9.086;2022-10-01T02:33:20;12.33;;;6.70;;
289;SDS011;13193;48.874;9.086;2022-10-01T02:35:49;11.43;;;5.70;;
289;SDS011;13193;48.874;9.086;2022-10-01T02:38:17;10.90;;;6.50;;
289;SDS011;13193;48.874;9.086;2022-10-01T02:40:47;10.53;;;5.80;;
289;SDS011;13193;48.874;9.086;2022-10-01T02:43:17;8.83;;;5.10;;
289;SDS011;13193;48.874;9.086;2022-10-01T02:45:47;12.13;;;5.97;;
289;SDS011;13193;48.874;9.086;2022-10-01T02:48:17;7.80;;;4.30;;
289;SDS011;13193;48.874;9.086;2022-10-01T02:53:28;9.93;;;5.53;;
289;SDS011;13193;48.874;9.086;2022-10-01T02:55:58;10.87;;;5.03;;
289;SDS011;13193;48.874;9.086;2022-10-01T02:58:26;9.97;;;5.10;;
289;SDS011;13193;48.874;9.086;2022-10-01T03:00:51;11.10;;;5.63;;
289;SDS011;13193;48.874;9.086;2022-10-01T03:03:17;10.20;;;5.80;;
289;SDS011;13193;48.874;9.086;2022-10-01T03:05:42;10.13;;;5.50;;
289;SDS011;13193;48.874;9.086;2022-10-01T03:08:08;9.40;;;5.53;;
289;SDS011;13193;48.874;9.086;2022-10-01T03:10:34;7.47;;;4.70;;
289;SDS011;13193;48.874;9.086;2022-10-01T03:12:59;13.93;;;5.30;;
289;SDS011;13193;48.874;9.086;2022-10-01T03:15:25;9.40;;;4.10;;
289;SDS011;13193;48.874;9.086;2022-10-01T03:17:52;10.67;;;4.40;;
289;SDS011;13193;48.874;9.086;2022-10-01T03:20:20;10.57;;;5.40;;
289;SDS011;13193;48.874;9.086;2022-10-01T03:22:46;8.13;;;4.33;;
289;SDS011;13193;48.874;9.086;2022-10-01T03:25:15;7.67;;;5.03;;
289;SDS011;13193;48.874;9.086;2022-10-01T03:27:41;5.90;;;3.73;;
289;SDS011;13193;48.874;9.086;2022-10-01T03:30:07;7.93;;;4.77;;
289;SDS011;13193;48.874;9.086;2022-10-01T03:32:33;6.57;;;3.60;;
289;SDS011;13193;48.874;9.086;2022-10-01T03:34:59;11.80;;;4.07;;
289;SDS011;13193;48.874;9.086;2022-10-01T03:37:25;6.27;;;3.20;;
289;SDS011;13193;48.874;9.086;2022-10-01T03:39:51;6.10;;;3.00;;
289;SDS011;13193;48.874;9.086;2022-10-01T03:42:16;6.17;;;3.87;;
289;SDS011;13193;48.874;9.086;2022-10-01T03:44:42;7.43;;;3.70;;
289;SDS011;13193;48.874;9.086;2022-10-01T03:47:08;5.67;;;3.03;;
289;SDS011;13193;48.874;9.086;2022-10-01T03:49:34;8.10;;;3.40;;
289;SDS011;13193;48.874;9.086;2022-10-01T03:52:01;5.07;;;3.37;;
289;SDS011;13193;48.874;9.086;2022-10-01T03:54:28;6.33;;;3.30;;
289;SDS011;13193;48.874;9.086;2022-10-01T03:56:55;6.30;;;3.60;;
289;SDS011;13193;48.874;9.086;2022-10-01T03:59:21;10.00;;;4.00;;
289;SDS011;13193;48.874;9.086;2022-10-01T04:01:47;8.83;;;3.77;;
289;SDS011;13193;48.874;9.086;2022-10-01T04:04:12;6.00;;;3.03;;
289;SDS011;13193;48.874;9.086;2022-10-01T04:06:39;5.00;;;3.13;;
289;SDS011;13193;48.874;9.086;2022-10-01T04:09:04;6.03;;;2.83;;
289;SDS011;13193;48.874;9.086;2022-10-01T04:11:30;6.50;;;3.00;;
289;SDS011;13193;48.874;9.086;2022-10-01T04:13:56;6.10;;;2.60;;
289;SDS011;13193;48.874;9.086;2022-10-01T04:16:22;6.93;;;2.30;;
289;SDS011;13193;48.874;9.086;2022-10-01T04:18:48;4.87;;;2.63;;
289;SDS011;13193;48.874;9.086;2022-10-01T04:21:14;7.20;;;2.90;;
289;SDS011;13193;48.874;9.086;2022-10-01T04:23:40;5.53;;;2.23;;
289;SDS011;13193;48.874;9.086;2022-10-01T04:26:06;3.10;;;2.00;;
289;SDS011;13193;48.874;9.086;2022-10-01T04:28:32;6.10;;;2.83;;
289;SDS011;13193;48.874;9.086;2022-10-01T04:30:59;3.43;;;2.50;;
289;SDS011;13193;48.874;9.086;2022-10-01T04:33:43;4.33;;;2.27;;
289;SDS011;13193;48.874;9.086;2022-10-01T04:36:09;5.80;;;2.60;;
289;SDS011;13193;48.874;9.086;2022-10-01T04:38:35;4.80;;;2.70;;
289;SDS011;13193;48.874;9.086;2022-10-01T04:41:01;10.00;;;2.80;;
289;SDS011;13193;48.874;9.086;2022-10-01T04:43:26;5.30;;;2.77;;
289;SDS011;13193;48.874;9.086;2022-10-01T04:45:52;5.47;;;2.50;;
289;SDS011;13193;48.874;9.086;2022-10-01T04:48:17;4.13;;;2.70;;
289;SDS011;13193;48.874;9.086;2022-10-01T04:50:43;3.30;;;1.70;;
289;SDS011;13193;48.874;9.086;2022-10-01T04:53:09;4.23;;;2.23;;
289;SDS011;13193;48.874;9.086;2022-10-01T04:55:35;4.70;;;2.40;;
289;SDS011;13193;48.874;9.086;2022-10-01T04:58:00;7.33;;;2.50;;
289;SDS011;13193;48.874;9.086;2022-10-01T05:00:26;5.77;;;2.10;;
289;SDS011;13193;48.874;9.086;2022-10-01T05:02:52;3.50;;;2.20;;
289;SDS011;13193;48.874;9.086;2022-10-01T05:05:19;5.80;;;2.20;;
289;SDS011;13193;48.874;9.086;2022-10-01T05:07:47;3.83;;;1.73;;
289;SDS011;13193;48.874;9.086;2022-10-01T05:10:14;4.00;;;2.17;;
289;SDS011;13193;48.874;9.086;2022-10-01T05:12:41;3.07;;;1.93;;
289;SDS011;13193;48.874;9.086;2022-10-01T05:15:07;2.97;;;1.80;;
289;SDS011;13193;48.874;9.086;2022-10-01T05:17:33;4.70;;;2.37;;
289;SDS011;13193;48.874;9.086;2022-10-01T05:20:00;3.57;;;1.90;;
289;SDS011;13193;48.874;9.086;2022-10-01T05:22:26;3.03;;;1.83;;
289;SDS011;13193;48.874;9.086;2022-10-01T05:24:52;2.73;;;1.90;;
289;SDS011;13193;48.874;9.086;2022-10-01T05:27:18;5.53;;;2.50;;
289;SDS011;13193;48.874;9.086;2022-10-01T05:29:44;3.73;;;1.80;;
289;SDS011;13193;48.874;9.086;2022-10-01T05:32:10;4.20;;;2.40;;
289;SDS011;13193;48.874;9.086;2022-10-01T05:34:36;3.20;;;1.70;;
289;SDS011;13193;48.874;9.086;2022-10-01T05:37:03;3.43;;;1.53;;
289;SDS011;13193;48.874;9.086;2022-10-01T05:39:29;4.10;;;2.20;;
289;SDS011;13193;48.874;9.086;2022-10-01T05:41:56;3.37;;;2.17;;
289;SDS011;13193;48.874;9.086;2022-10-01T05:44:22;3.70;;;2.30;;
289;SDS011;13193;48.874;9.086;2022-10-01T05:46:48;3.50;;;2.20;;
289;SDS011;13193;48.874;9.086;2022-10-01T05:49:14;4.10;;;2.30;;
289;SDS011;13193;48.874;9.086;2022-10-01T05:51:41;3.30;;;2.07;;
289;SDS011;13193;48.874;9.086;2022-10-01T05:54:07;6.60;;;2.03;;
289;SDS011;13193;48.874;9.086;2022-10-01T05:56:34;3.60;;;1.77;;
289;SDS011;13193;48.874;9.086;2022-10-01T05:59:00;11.80;;;1.83;;
289;SDS011;13193;48.874;9.086;2022-10-01T06:01:26;5.03;;;2.17;;
289;SDS011;13193;48.874;9.086;2022-10-01T06:03:52;3.57;;;1.90;;
289;SDS011;13193;48.874;9.086;2022-10-01T06:06:22;5.33;;;2.13;;
289;SDS011;13193;48.874;9.086;2022-10-01T06:08:51;4.63;;;1.93;;
289;SDS011;13193;48.874;9.086;2022-10-01T06:11:17;3.97;;;2.30;;
289;SDS011;13193;48.874;9.086;2022-10-01T06:13:46;4.10;;;2.10;;
289;SDS011;13193;48.874;9.086;2022-10-01T06:16:12;4.30;;;2.20;;
289;SDS011;13193;48.874;9.086;2022-10-01T06:18:39;4.00;;;2.10;;
289;SDS011;13193;48.874;9.086;2022-10-01T06:21:05;4.67;;;2.20;;
289;SDS011;13193;48.874;9.086;2022-10-01T06:23:31;4.37;;;2.20;;
289;SDS011;13193;48.874;9.086;2022-10-01T06:25:58;4.97;;;2.43;;
289;SDS011;13193;48.874;9.086;2022-10-01T06:28:24;5.67;;;3.03;;
289;SDS011;13193;48.874;9.086;2022-10-01T06:30:50;4.93;;;2.93;;
289;SDS011;13193;48.874;9.086;2022-10-01T06:33:16;3.63;;;2.50;;
289;SDS011;13193;48.874;9.086;2022-10-01T06:35:43;7.53;;;5.17;;
289;SDS011;13193;48.874;9.086;2022-10-01T06:38:13;18.57;;;8.23;;
289;SDS011;13193;48.874;9.086;2022-10-01T06:40:40;5.77;;;3.30;;
289;SDS011;13193;48.874;9.086;2022-10-01T06:43:06;7.13;;;2.80;;
289;SDS011;13193;48.874;9.086;2022-10-01T06:45:34;5.50;;;2.70;;
289;SDS011;13193;48.874;9.086;2022-10-01T06:48:06;7.47;;;2.50;;
289;SDS011;13193;48.874;9.086;2022-10-01T06:50:33;4.30;;;2.40;;
289;SDS011;13193;48.874;9.086;2022-10-01T06:52:59;3.97;;;2.17;;
289;SDS011;13193;48.874;9.086;2022-10-01T06:55:28;5.17;;;1.97;;
289;SDS011;13193;48.874;9.086;2022-10-01T07:00:23;25.77;;;6.50;;
289;SDS011;13193;48.874;9.086;2022-10-01T07:02:50;4.67;;;2.30;;
289;SDS011;13193;48.874;9.086;2022-10-01T07:08:01;8.60;;;2.30;;
289;SDS011;13193;48.874;9.086;2022-10-01T07:10:27;2.80;;;1.80;;
289;SDS011;13193;48.874;9.086;2022-10-01T07:13:04;6.90;;;1.53;;
289;SDS011;13193;48.874;9.086;2022-10-01T07:15:40;6.23;;;2.27;;
289;SDS011;13193;48.874;9.086;2022-10-01T07:18:06;2.77;;;1.40;;
289;SDS011;13193;48.874;9.086;2022-10-01T07:23:11;4.53;;;2.30;;
289;SDS011;13193;48.874;9.086;2022-10-01T07:25:38;4.30;;;2.20;;
289;SDS011;13193;48.874;9.086;2022-10-01T07:28:17;4.40;;;2.33;;
289;SDS011;13193;48.874;9.086;2022-10-01T07:31:06;19.57;;;12.10;;
289;SDS011;13193;48.874;9.086;2022-10-01T07:33:33;17.30;;;5.67;;
289;SDS011;13193;48.874;9.086;2022-10-01T07:36:01;36.13;;;15.97;;
289;SDS011;13193;48.874;9.086;2022-10-01T07:38:28;13.53;;;7.17;;
289;SDS011;13193;48.874;9.086;2022-10-01T07:40:54;3.40;;;1.57;;
289;SDS011;13193;48.874;9.086;2022-10-01T07:43:20;3.57;;;1.37;;
289;SDS011;13193;48.874;9.086;2022-10-01T07:45:46;3.30;;;1.57;;
289;SDS011;13193;48.874;9.086;2022-10-01T07:48:12;5.80;;;2.80;;
289;SDS011;13193;48.874;9.086;2022-10-01T07:50:41;3.60;;;2.57;;
289;SDS011;13193;48.874;9.086;2022-10-01T07:53:11;3.93;;;2.30;;
289;SDS011;13193;48.874;9.086;2022-10-01T07:55:37;3.07;;;2.20;;
289;SDS011;13193;48.874;9.086;2022-10-01T07:58:03;4.93;;;2.30;;
289;SDS011;13193;48.874;9.086;2022-10-01T08:00:30;6.20;;;2.33;;
289;SDS011;13193;48.874;9.086;2022-10-01T08:03:02;4.43;;;2.13;;
289;SDS011;13193;48.874;9.086;2022-10-01T08:05:32;2.30;;;1.30;;
289;SDS011;13193;48.874;9.086;2022-10-01T08:11:24;2.00;;;1.33;;
289;SDS011;13193;48.874;9.086;2022-10-01T08:13:50;2.90;;;1.57;;
289;SDS011;13193;48.874;9.086;2022-10-01T08:16:16;3.70;;;1.53;;
289;SDS011;13193;48.874;9.086;2022-10-01T08:18:42;3.83;;;1.50;;
289;SDS011;13193;48.874;9.086;2022-10-01T08:21:08;1.43;;;0.93;;
289;SDS011;13193;48.874;9.086;2022-10-01T08:23:34;2.20;;;1.00;;
289;SDS011;13193;48.874;9.086;2022-10-01T08:26:04;7.90;;;1.20;;
289;SDS011;13193;48.874;9.086;2022-10-01T08:28:34;2.90;;;1.00;;
289;SDS011;13193;48.874;9.086;2022-10-01T08:31:06;1.57;;;1.10;;
289;SDS011;13193;48.874;9.086;2022-10-01T08:33:34;2.47;;;1.53;;
289;SDS011;13193;48.874;9.086;2022-10-01T08:36:01;3.10;;;1.30;;
289;SDS011;13193;48.874;9.086;2022-10-01T08:38:27;2.97;;;1.47;;
289;SDS011;13193;48.874;9.086;2022-10-01T08:40:53;1.90;;;1.10;;
289;SDS011;13193;48.874;9.086;2022-10-01T08:43:28;2.03;;;1.00;;
289;SDS011;13193;48.874;9.086;2022-10-01T08:46:13;15.80;;;7.70;;
289;SDS011;13193;48.874;9.086;2022-10-01T08:49:00;10.27;;;5.07;;
289;SDS011;13193;48.874;9.086;2022-10-01T08:51:36;2.60;;;1.73;;
289;SDS011;13193;48.874;9.086;2022-10-01T08:56:55;2.87;;;1.80;;
289;SDS011;13193;48.874;9.086;2022-10-01T09:02:09;2.80;;;1.37;;
289;SDS011;13193;48.874;9.086;2022-10-01T09:04:43;4.27;;;1.60;;
289;SDS011;13193;48.874;9.086;2022-10-01T09:07:15;2.50;;;1.20;;
289;SDS011;13193;48.874;9.086;2022-10-01T09:10:45;3.87;;;1.57;;
289;SDS011;13193;48.874;9.086;2022-10-01T09:18:14;2.13;;;1.27;;
289;SDS011;13193;48.874;9.086;2022-10-01T09:20:58;2.53;;;1.27;;
289;SDS011;13193;48.874;9.086;2022-10-01T09:23:30;3.37;;;1.83;;
289;SDS011;13193;48.874;9.086;2022-10-01T09:26:03;1.70;;;1.10;;
289;SDS011;13193;48.874;9.086;2022-10-01T09:28:34;1.80;;;1.10;;
289;SDS011;13193;48.874;9.086;2022-10-01T09:31:07;2.03;;;1.20;;
289;SDS011;13193;48.874;9.086;2022-10-01T09:33:40;3.00;;;1.20;;
289;SDS011;13193;48.874;9.086;2022-10-01T09:38:58;16.53;;;5.43;;
289;SDS011;13193;48.874;9.086;2022-10-01T09:41:43;13.27;;;3.53;;
289;SDS011;13193;48.874;9.086;2022-10-01T09:44:14;4.93;;;1.90;;
289;SDS011;13193;48.874;9.086;2022-10-01T09:46:44;2.50;;;1.80;;
289;SDS011;13193;48.874;9.086;2022-10-01T09:49:32;4.17;;;1.63;;
289;SDS011;13193;48.874;9.086;2022-10-01T09:52:33;3.07;;;1.00;;
289;SDS011;13193;48.874;9.086;2022-10-01T09:55:02;4.30;;;1.67;;
289;SDS011;13193;48.874;9.086;2022-10-01T10:00:25;15.27;;;7.60;;
289;SDS011;13193;48.874;9.086;2022-10-01T10:02:52;9.70;;;3.67;;
289;SDS011;13193;48.874;9.086;2022-10-01T10:05:20;6.50;;;3.60;;
289;SDS011;13193;48.874;9.086;2022-10-01T10:08:04;2.90;;;1.70;;
289;SDS011;13193;48.874;9.086;2022-10-01T10:10:39;1.97;;;1.20;;
289;SDS011;13193;48.874;9.086;2022-10-01T10:15:49;2.70;;;1.43;;
289;SDS011;13193;48.874;9.086;2022-10-01T10:18:19;2.13;;;1.10;;
289;SDS011;13193;48.874;9.086;2022-10-01T10:20:54;4.07;;;2.33;;
289;SDS011;13193;48.874;9.086;2022-10-01T10:23:23;3.00;;;1.80;;
289;SDS011;13193;48.874;9.086;2022-10-01T10:26:01;3.90;;;2.00;;
289;SDS011;13193;48.874;9.086;2022-10-01T10:28:41;5.93;;;1.93;;
289;SDS011;13193;48.874;9.086;2022-10-01T10:31:33;2.53;;;1.80;;
289;SDS011;13193;48.874;9.086;2022-10-01T10:34:10;2.57;;;1.50;;
289;SDS011;13193;48.874;9.086;2022-10-01T10:36:39;2.40;;;1.00;;
289;SDS011;13193;48.874;9.086;2022-10-01T10:39:15;3.77;;;1.30;;
289;SDS011;13193;48.874;9.086;2022-10-01T10:41:51;3.20;;;1.20;;
289;SDS011;13193;48.874;9.086;2022-10-01T10:44:18;1.60;;;1.00;;
289;SDS011;13193;48.874;9.086;2022-10-01T10:46:46;2.40;;;1.10;;
289;SDS011;13193;48.874;9.086;2022-10-01T10:49:18;2.30;;;0.90;;
289;SDS011;13193;48.874;9.086;2022-10-01T10:51:50;1.67;;;0.60;;
289;SDS011;13193;48.874;9.086;2022-10-01T10:54:27;4.33;;;0.80;;
289;SDS011;13193;48.874;9.086;2022-10-01T10:56:58;2.33;;;1.03;;
289;SDS011;13193;48.874;9.086;2022-10-01T10:59:53;1.83;;;0.70;;
289;SDS011;13193;48.874;9.086;2022-10-01T11:02:31;1.50;;;0.60;;
289;SDS011;13193;48.874;9.086;2022-10-01T11:04:58;1.87;;;1.10;;
289;SDS011;13193;48.874;9.086;2022-10-01T11:07:29;4.57;;;0.97;;
289;SDS011;13193;48.874;9.086;2022-10-01T11:10:09;4.27;;;2.63;;
289;SDS011;13193;48.874;9.086;2022-10-01T11:15:43;2.20;;;1.10;;
289;SDS011;13193;48.874;9.086;2022-10-01T11:31:50;2.27;;;0.90;;
289;SDS011;13193;48.874;9.086;2022-10-01T11:34:49;1.80;;;1.10;;
289;SDS011;13193;48.874;9.086;2022-10-01T11:37:28;1.90;;;0.90;;
289;SDS011;13193;48.874;9.086;2022-10-01T11:40:12;7.20;;;1.43;;
289;SDS011;13193;48.874;9.086;2022-10-01T11:42:48;3.00;;;1.70;;
289;SDS011;13193;48.874;9.086;2022-10-01T11:45:26;1.50;;;0.90;;
289;SDS011;13193;48.874;9.086;2022-10-01T11:47:57;2.90;;;1.47;;
289;SDS011;13193;48.874;9.086;2022-10-01T11:50:30;2.60;;;1.17;;
289;SDS011;13193;48.874;9.086;2022-10-01T11:55:30;1.87;;;1.33;;
289;SDS011;13193;48.874;9.086;2022-10-01T11:58:28;1.70;;;0.90;;
289;SDS011;13193;48.874;9.086;2022-10-01T12:01:23;1.87;;;1.10;;
289;SDS011;13193;48.874;9.086;2022-10-01T12:04:11;2.07;;;1.10;;
289;SDS011;13193;48.874;9.086;2022-10-01T12:06:50;2.90;;;1.53;;
289;SDS011;13193;48.874;9.086;2022-10-01T12:12:25;4.33;;;1.50;;
289;SDS011;13193;48.874;9.086;2022-10-01T12:15:04;3.40;;;3.10;;
289;SDS011;13193;48.874;9.086;2022-10-01T12:17:48;2.60;;;1.27;;
289;SDS011;13193;48.874;9.086;2022-10-01T12:20:22;1.90;;;0.87;;
289;SDS011;13193;48.874;9.086;2022-10-01T12:23:08;6.33;;;1.37;;
289;SDS011;13193;48.874;9.086;2022-10-01T12:26:01;2.20;;;0.97;;
289;SDS011;13193;48.874;9.086;2022-10-01T12:31:27;2.97;;;1.20;;
289;SDS011;13193;48.874;9.086;2022-10-01T12:39:26;1.97;;;1.07;;
289;SDS011;13193;48.874;9.086;2022-10-01T12:52:51;1.40;;;0.67;;
289;SDS011;13193;48.874;9.086;2022-10-01T12:55:53;1.33;;;0.70;;
289;SDS011;13193;48.874;9.086;2022-10-01T13:01:25;1.73;;;0.83;;
289;SDS011;13193;48.874;9.086;2022-10-01T13:06:56;4.77;;;2.63;;
289;SDS011;13193;48.874;9.086;2022-10-01T13:15:22;1.37;;;1.00;;
289;SDS011;13193;48.874;9.086;2022-10-01T13:18:12;1.30;;;0.73;;
289;SDS011;13193;48.874;9.086;2022-10-01T13:26:17;1.70;;;0.93;;
289;SDS011;13193;48.874;9.086;2022-10-01T13:29:07;2.37;;;1.40;;
289;SDS011;13193;48.874;9.086;2022-10-01T13:34:39;1.47;;;0.80;;
289;SDS011;13193;48.874;9.086;2022-10-01T13:37:13;1.90;;;1.00;;
289;SDS011;13193;48.874;9.086;2022-10-01T13:39:55;2.07;;;1.03;;
289;SDS011;13193;48.874;9.086;2022-10-01T13:42:25;1.87;;;1.30;;
289;SDS011;13193;48.874;9.086;2022-10-01T13:45:05;2.00;;;1.13;;
289;SDS011;13193;48.874;9.086;2022-10-01T13:47:32;1.63;;;0.80;;
289;SDS011;13193;48.874;9.086;2022-10-01T13:50:06;3.00;;;1.10;;
289;SDS011;13193;48.874;9.086;2022-10-01T13:52:43;1.73;;;0.90;;
289;SDS011;13193;48.874;9.086;2022-10-01T13:55:25;9.27;;;1.17;;
289;SDS011;13193;48.874;9.086;2022-10-01T13:58:05;2.60;;;0.63;;
289;SDS011;13193;48.874;9.086;2022-10-01T14:00:51;2.17;;;0.60;;
289;SDS011;13193;48.874;9.086;2022-10-01T14:03:28;2.77;;;1.13;;
289;SDS011;13193;48.874;9.086;2022-10-01T14:05:58;3.90;;;1.73;;
289;SDS011;13193;48.874;9.086;2022-10-01T14:08:34;7.87;;;1.47;;
289;SDS011;13193;48.874;9.086;2022-10-01T14:11:10;2.27;;;0.93;;
289;SDS011;13193;48.874;9.086;2022-10-01T14:14:01;1.93;;;0.80;;
289;SDS011;13193;48.874;9.086;2022-10-01T14:16:54;4.07;;;0.97;;
289;SDS011;13193;48.874;9.086;2022-10-01T14:19:23;3.83;;;0.80;;
289;SDS011;13193;48.874;9.086;2022-10-01T14:21:54;4.20;;;0.93;;
289;SDS011;13193;48.874;9.086;2022-10-01T14:26:59;2.43;;;1.00;;
289;SDS011;13193;48.874;9.086;2022-10-01T14:35:34;2.17;;;1.67;;
289;SDS011;13193;48.874;9.086;2022-10-01T14:38:10;2.30;;;1.00;;
289;SDS011;13193;48.874;9.086;2022-10-01T14:40:44;4.63;;;1.70;;
289;SDS011;13193;48.874;9.086;2022-10-01T14:43:19;2.30;;;1.20;;
289;SDS011;13193;48.874;9.086;2022-10-01T14:46:09;2.03;;;0.80;;
289;SDS011;13193;48.874;9.086;2022-10-01T14:48:38;3.40;;;0.80;;
289;SDS011;13193;48.874;9.086;2022-10-01T14:51:05;4.90;;;0.77;;
289;SDS011;13193;48.874;9.086;2022-10-01T14:53:46;3.57;;;1.33;;
289;SDS011;13193;48.874;9.086;2022-10-01T14:56:16;1.80;;;0.80;;
289;SDS011;13193;48.874;9.086;2022-10-01T14:58:45;2.37;;;1.20;;
289;SDS011;13193;48.874;9.086;2022-10-01T15:01:21;3.00;;;1.10;;
289;SDS011;13193;48.874;9.086;2022-10-01T15:03:48;2.70;;;0.67;;
289;SDS011;13193;48.874;9.086;2022-10-01T15:06:18;1.87;;;0.70;;
289;SDS011;13193;48.874;9.086;2022-10-01T15:08:51;2.93;;;0.53;;
289;SDS011;13193;48.874;9.086;2022-10-01T15:11:20;1.30;;;0.70;;
289;SDS011;13193;48.874;9.086;2022-10-01T15:13:48;3.30;;;1.00;;
289;SDS011;13193;48.874;9.086;2022-10-01T15:16:16;3.90;;;1.50;;
289;SDS011;13193;48.874;9.086;2022-10-01T15:18:46;1.80;;;0.87;;
289;SDS011;13193;48.874;9.086;2022-10-01T15:21:15;1.93;;;0.97;;
289;SDS011;13193;48.874;9.086;2022-10-01T15:23:48;3.80;;;0.87;;
289;SDS011;13193;48.874;9.086;2022-10-01T15:26:17;6.80;;;0.93;;
289;SDS011;13193;48.874;9.086;2022-10-01T15:28:46;1.70;;;0.77;;
289;SDS011;13193;48.874;9.086;2022-10-01T15:31:12;1.40;;;0.73;;
289;SDS011;13193;48.874;9.086;2022-10-01T15:33:38;2.03;;;0.93;;
289;SDS011;13193;48.874;9.086;2022-10-01T15:36:05;3.67;;;0.70;;
289;SDS011;13193;48.874;9.086;2022-10-01T15:38:36;2.80;;;1.00;;
289;SDS011;13193;48.874;9.086;2022-10-01T15:41:03;2.13;;;0.80;;
289;SDS011;13193;48.874;9.086;2022-10-01T15:48:46;6.97;;;1.10;;
289;SDS011;13193;48.874;9.086;2022-10-01T15:53:44;5.43;;;1.13;;
289;SDS011;13193;48.874;9.086;2022-10-01T15:56:11;2.30;;;1.00;;
289;SDS011;13193;48.874;9.086;2022-10-01T15:58:50;1.67;;;0.70;;
289;SDS011;13193;48.874;9.086;2022-10-01T16:01:22;1.80;;;0.83;;
289;SDS011;13193;48.874;9.086;2022-10-01T16:04:01;5.13;;;1.20;;
289;SDS011;13193;48.874;9.086;2022-10-01T16:06:48;5.10;;;1.20;;
289;SDS011;13193;48.874;9.086;2022-10-01T16:09:25;2.53;;;0.80;;
289;SDS011;13193;48.874;9.086;2022-10-01T16:14:36;2.13;;;0.80;;
289;SDS011;13193;48.874;9.086;2022-10-01T16:19:46;2.27;;;0.90;;
289;SDS011;13193;48.874;9.086;2022-10-01T16:28:00;2.90;;;1.30;;
289;SDS011;13193;48.874;9.086;2022-10-01T16:30:28;1.80;;;0.83;;
289;SDS011;13193;48.874;9.086;2022-10-01T16:32:56;8.70;;;1.60;;
289;SDS011;13193;48.874;9.086;2022-10-01T16:35:24;3.63;;;0.90;;
289;SDS011;13193;48.874;9.086;2022-10-01T16:37:54;2.30;;;1.00;;
289;SDS011;13193;48.874;9.086;2022-10-01T16:40:25;7.40;;;1.23;;
289;SDS011;13193;48.874;9.086;2022-10-01T16:42:53;4.43;;;1.30;;
289;SDS011;13193;48.874;9.086;2022-10-01T16:45:20;2.17;;;1.00;;
289;SDS011;13193;48.874;9.086;2022-10-01T16:47:51;5.03;;;0.80;;
289;SDS011;13193;48.874;9.086;2022-10-01T16:50:19;3.10;;;1.53;;
289;SDS011;13193;48.874;9.086;2022-10-01T16:52:46;2.17;;;1.10;;
289;SDS011;13193;48.874;9.086;2022-10-01T16:55:17;3.30;;;1.20;;
289;SDS011;13193;48.874;9.086;2022-10-01T16:57:46;2.63;;;0.60;;
289;SDS011;13193;48.874;9.086;2022-10-01T17:00:16;4.10;;;0.73;;
289;SDS011;13193;48.874;9.086;2022-10-01T17:02:43;3.30;;;0.80;;
289;SDS011;13193;48.874;9.086;2022-10-01T17:05:17;3.30;;;1.00;;
289;SDS011;13193;48.874;9.086;2022-10-01T17:07:44;4.93;;;1.23;;
289;SDS011;13193;48.874;9.086;2022-10-01T17:10:11;1.50;;;0.80;;
289;SDS011;13193;48.874;9.086;2022-10-01T17:12:38;2.10;;;1.03;;
289;SDS011;13193;48.874;9.086;2022-10-01T17:15:05;1.87;;;0.93;;
289;SDS011;13193;48.874;9.086;2022-10-01T17:17:31;10.53;;;2.30;;
289;SDS011;13193;48.874;9.086;2022-10-01T17:19:56;2.27;;;1.17;;
289;SDS011;13193;48.874;9.086;2022-10-01T17:22:22;2.77;;;1.10;;
289;SDS011;13193;48.874;9.086;2022-10-01T17:24:48;2.80;;;1.33;;
289;SDS011;13193;48.874;9.086;2022-10-01T17:27:13;2.10;;;1.00;;
289;SDS011;13193;48.874;9.086;2022-10-01T17:29:39;4.20;;;1.20;;
289;SDS011;13193;48.874;9.086;2022-10-01T17:32:04;1.83;;;1.10;;
289;SDS011;13193;48.874;9.086;2022-10-01T17:34:30;2.90;;;1.37;;
289;SDS011;13193;48.874;9.086;2022-10-01T17:36:58;7.60;;;1.63;;
289;SDS011;13193;48.874;9.086;2022-10-01T17:39:24;7.10;;;1.73;;
289;SDS011;13193;48.874;9.086;2022-10-01T17:41:50;2.77;;;1.13;;
289;SDS011;13193;48.874;9.086;2022-10-01T17:44:15;3.17;;;1.30;;
289;SDS011;13193;48.874;9.086;2022-10-01T17:46:41;6.10;;;1.97;;
289;SDS011;13193;48.874;9.086;2022-10-01T17:49:07;5.07;;;1.67;;
289;SDS011;13193;48.874;9.086;2022-10-01T17:51:33;2.73;;;1.60;;
289;SDS011;13193;48.874;9.086;2022-10-01T17:54:00;2.83;;;1.43;;
289;SDS011;13193;48.874;9.086;2022-10-01T17:56:27;7.90;;;2.50;;
289;SDS011;13193;48.874;9.086;2022-10-01T17:58:56;3.77;;;1.47;;
289;SDS011;13193;48.874;9.086;2022-10-01T18:01:23;8.97;;;3.87;;